createdAt,value
2018-11-26T05:49:12.193Z,6.30
2018-11-26T05:51:50.089Z,6.30
2018-11-26T05:54:26.868Z,6.30
2018-11-26T05:56:45.378Z,6.30
2018-11-26T06:00:08.451Z,6.30
2018-11-26T06:06:17.235Z,6.30
2018-11-26T06:08:45.710Z,6.30
2018-11-26T06:11:41.709Z,6.30
2018-11-26T06:14:10.315Z,6.30
2018-11-26T06:19:30.805Z,6.40
2018-11-26T06:22:01.830Z,6.30
2018-11-26T06:25:03.275Z,6.40
2018-11-26T06:28:03.687Z,6.40
2018-11-26T06:40:59.541Z,6.40
2018-11-26T06:53:37.427Z,6.40
2018-11-26T06:56:10.615Z,6.40
2018-11-26T06:59:03.804Z,6.20
2018-11-26T07:01:35.196Z,6.30
2018-11-26T07:04:05.415Z,6.50
2018-11-26T07:10:04.360Z,6.50
2018-11-26T07:12:31.609Z,6.50
2018-11-26T07:15:18.695Z,6.40
2018-11-26T07:19:21.495Z,6.50
2018-11-26T07:24:16.364Z,6.50
2018-11-26T07:26:48.031Z,6.50
2018-11-26T07:29:24.250Z,6.60
2018-11-26T07:31:49.681Z,6.60
2018-11-26T07:35:11.138Z,6.50
2018-11-26T07:37:40.140Z,6.50
2018-11-26T07:44:08.296Z,6.60
2018-11-26T07:49:28.412Z,6.40
2018-11-26T07:52:45.521Z,6.40
2018-11-26T07:58:02.247Z,6.60
2018-11-26T07:58:44.760Z,6.50
2018-11-26T08:00:32.319Z,6.70
2018-11-26T08:03:03.761Z,6.80
2018-11-26T08:05:41.997Z,6.90
2018-11-26T08:08:41.713Z,7.00
2018-11-26T08:14:29.897Z,7.10
2018-11-26T08:17:18.723Z,7.10
2018-11-26T08:19:50.431Z,7.10
2018-11-26T08:22:19.868Z,7.10
2018-11-26T08:24:50.735Z,7.10
2018-11-26T08:27:24.775Z,7.20
2018-11-26T08:30:02.072Z,7.30
2018-11-26T08:32:36.322Z,7.40
2018-11-26T08:35:07.519Z,7.40
2018-11-26T08:37:36.415Z,7.50
2018-11-26T08:44:09.618Z,7.70
2018-11-26T08:47:53.143Z,7.90
2018-11-26T08:50:48.989Z,8.10
2018-11-26T08:53:37.141Z,8.10
2018-11-26T08:56:06.690Z,8.20
2018-11-26T09:06:01.549Z,8.30
2018-11-26T09:08:24.561Z,8.50
2018-11-26T09:10:59.804Z,8.60
2018-11-26T09:13:51.274Z,8.60
2018-11-26T09:19:16.414Z,8.40
2018-11-26T09:25:14.289Z,8.60
2018-11-26T09:29:21.138Z,8.60
2018-11-26T09:32:31.739Z,8.60
2018-11-26T09:35:30.626Z,8.60
2018-11-26T09:38:53.921Z,8.60
2018-11-26T09:41:03.871Z,8.50
2018-11-26T09:51:23.326Z,8.60
2018-11-26T09:54:52.841Z,8.60
2018-11-26T09:57:18.103Z,8.60
2018-11-26T10:05:52.462Z,8.60
2018-11-26T10:06:54.785Z,8.60
2018-11-26T10:09:29.179Z,8.50
2018-11-26T10:15:53.449Z,8.50
2018-11-26T10:25:25.477Z,8.30
2018-11-26T10:28:12.943Z,8.30
2018-11-26T10:31:07.379Z,8.30
2018-11-26T10:34:36.180Z,8.40
2018-11-26T10:37:20.279Z,8.50
2018-11-26T10:40:18.120Z,8.50
2018-11-26T10:42:58.740Z,8.60
2018-11-26T10:45:51.361Z,8.80
2018-11-26T10:48:23.012Z,8.80
2018-11-26T10:51:30.954Z,8.70
2018-11-26T10:54:04.977Z,8.80
2018-11-26T10:57:03.269Z,8.90
2018-11-26T10:59:17.987Z,9.10
2018-11-26T11:02:22.443Z,9.10
2018-11-26T11:05:14.090Z,8.90
2018-11-26T11:07:32.843Z,8.80
2018-11-26T11:10:05.368Z,8.60
2018-11-26T11:13:00.542Z,8.60
2018-11-26T11:15:31.893Z,8.60
2018-11-26T11:18:00.991Z,8.60
2018-11-26T11:20:45.363Z,8.70
2018-11-26T11:24:19.661Z,8.70
2018-11-26T11:26:01.907Z,8.80
2018-11-26T11:28:30.699Z,8.70
2018-11-26T11:31:02.013Z,8.70
2018-11-26T11:33:40.830Z,8.70
2018-11-26T11:36:10.610Z,8.60
2018-11-26T11:42:09.311Z,8.80
2018-11-26T11:44:53.016Z,8.80
2018-11-26T11:52:21.223Z,8.70
2018-11-26T11:55:02.445Z,8.60
2018-11-26T12:01:05.250Z,8.70
2018-11-26T12:06:12.460Z,8.70
2018-11-26T12:07:04.865Z,8.60
2018-11-26T13:10:33.041Z,8.80
2018-11-26T13:14:02.944Z,8.70
2018-11-26T13:17:10.487Z,8.70
2018-11-26T13:23:19.319Z,8.70
2018-11-26T13:26:10.418Z,8.60
2018-11-26T13:28:50.973Z,8.60
2018-11-26T13:31:52.002Z,8.70
2018-11-26T13:34:36.411Z,8.60
2018-11-26T13:37:12.666Z,8.60
2018-11-26T13:39:44.413Z,8.50
2018-11-26T13:42:18.425Z,8.40
2018-11-26T13:44:41.116Z,8.20
2018-11-26T13:54:10.847Z,7.90
2018-11-26T13:56:42.861Z,7.80
2018-11-26T13:59:33.301Z,7.80
2018-11-26T14:12:12.958Z,7.70
2018-11-26T14:41:31.022Z,7.60
2018-11-26T14:43:44.437Z,7.60
2018-11-26T15:13:05.744Z,7.40
2018-11-26T15:15:44.977Z,7.30
2018-11-26T15:19:51.921Z,7.40
2018-11-26T15:23:06.410Z,7.40
2018-11-26T15:33:56.217Z,7.20
2018-11-26T15:36:25.501Z,7.20
2018-11-26T16:58:01.028Z,6.70
2018-11-26T18:47:25.489Z,7.30
2018-11-26T19:34:19.470Z,7.10
2018-11-26T20:00:21.281Z,7.00
2018-11-26T20:02:32.367Z,7.00
2018-11-26T20:05:11.868Z,6.90
2018-11-26T20:08:40.132Z,6.90
2018-11-26T20:11:09.291Z,6.90
2018-11-26T20:14:01.816Z,6.90
2018-11-26T20:20:34.360Z,6.90
2018-11-26T20:26:52.843Z,6.90
2018-11-26T20:29:22.507Z,6.90
2018-11-26T20:32:21.933Z,6.90
2018-11-26T20:35:16.835Z,6.90
2018-11-26T20:38:17.924Z,6.90
2018-11-26T20:40:19.156Z,6.80
2018-11-26T20:43:47.149Z,6.80
2018-11-26T20:47:02.577Z,6.80
2018-11-26T20:49:41.788Z,6.70
2018-11-26T20:52:23.923Z,6.60
2018-11-26T20:54:52.492Z,6.60
2018-11-26T20:58:22.505Z,6.60
2018-11-26T21:00:43.686Z,6.60
2018-11-26T21:03:52.660Z,6.60
2018-11-26T21:07:28.423Z,6.60
2018-11-26T21:10:33.336Z,6.70
2018-11-26T21:16:16.611Z,6.60
2018-11-26T21:19:12.491Z,6.60
2018-11-26T21:27:57.707Z,6.50
2018-11-26T21:30:35.969Z,6.50
2018-11-26T21:33:20.996Z,6.60
2018-11-26T21:35:52.299Z,6.60
2018-11-26T21:50:40.146Z,6.60
2018-11-26T22:00:46.725Z,6.50
2018-11-26T22:24:47.313Z,6.40
2018-11-26T22:30:57.348Z,6.50
2018-11-26T22:36:26.491Z,6.50
2018-11-26T22:39:19.664Z,6.50
2018-11-26T22:42:50.339Z,6.50
2018-11-26T23:01:23.677Z,6.50
2018-11-26T23:04:27.436Z,6.50
2018-11-26T23:13:33.792Z,6.50
2018-11-26T23:15:59.023Z,6.50
2018-11-26T23:18:26.248Z,6.50
2018-11-26T23:24:35.548Z,6.50
2018-11-26T23:27:52.249Z,6.50
